Birjand, Birjand International Airport (OIMB)

NameBirjand International Airport
CityBirjand
CountryIran (Islamic Republic of)
ICAOOIMB
IATAXBJ
Altitude1509 m
CoordinatesGoogle Map
Live Air TrafficLiveATC.net
METAROIMB 220700Z 00000KT CAVOK 06/M12 Q1017
2019-01-22 07:00:00 Wind: North (0°) 0 m/s - Visibility: > 10000 m - Weather: CAVOK - Temperature: 6 °C - Dew point: -12 °C - Humidity: 26.4% - Pressure: 1017 hPa
Statistics

The table below shows the detailed information of all flights to/from Birjand, Birjand International Airport (OIMB).